sensor_id;sensor_type;location;lat;lon;timestamp;pressure;altitude;pressure_sealevel;temperature;humidity
29215;BME280;16252;49.816;7.964;2022-08-01T00:00:18;99972.59;;;27.15;38.27
29215;BME280;16252;49.816;7.964;2022-08-01T00:02:44;99972.19;;;27.11;38.39
29215;BME280;16252;49.816;7.964;2022-08-01T00:05:09;99980.22;;;27.13;38.61
29215;BME280;16252;49.816;7.964;2022-08-01T00:07:36;99973.13;;;27.05;38.49
29215;BME280;16252;49.816;7.964;2022-08-01T00:10:04;99979.41;;;27.12;38.45
29215;BME280;16252;49.816;7.964;2022-08-01T00:12:29;99973.56;;;27.02;38.83
29215;BME280;16252;49.816;7.964;2022-08-01T00:14:55;99964.84;;;26.87;38.89
29215;BME280;16252;49.816;7.964;2022-08-01T00:17:20;99971.09;;;26.94;38.82
29215;BME280;16252;49.816;7.964;2022-08-01T00:19:45;99951.00;;;26.75;39.05
29215;BME280;16252;49.816;7.964;2022-08-01T00:22:10;99966.81;;;26.79;39.14
29215;BME280;16252;49.816;7.964;2022-08-01T00:24:36;99970.59;;;26.78;39.18
29215;BME280;16252;49.816;7.964;2022-08-01T00:27:01;99982.44;;;26.79;39.22
29215;BME280;16252;49.816;7.964;2022-08-01T00:29:26;99991.09;;;26.76;39.57
29215;BME280;16252;49.816;7.964;2022-08-01T00:31:51;99974.06;;;26.67;39.39
29215;BME280;16252;49.816;7.964;2022-08-01T00:34:17;99982.09;;;26.69;39.68
29215;BME280;16252;49.816;7.964;2022-08-01T00:36:42;99967.16;;;26.58;39.85
29215;BME280;16252;49.816;7.964;2022-08-01T00:39:08;99982.13;;;26.62;39.71
29215;BME280;16252;49.816;7.964;2022-08-01T00:41:33;99977.69;;;26.61;39.72
29215;BME280;16252;49.816;7.964;2022-08-01T00:44:02;99996.25;;;26.66;39.70
29215;BME280;16252;49.816;7.964;2022-08-01T00:46:28;100004.25;;;26.67;39.55
29215;BME280;16252;49.816;7.964;2022-08-01T00:48:53;99993.56;;;26.59;39.75
29215;BME280;16252;49.816;7.964;2022-08-01T00:51:19;99997.97;;;26.60;39.93
29215;BME280;16252;49.816;7.964;2022-08-01T00:53:45;100000.09;;;26.58;40.25
29215;BME280;16252;49.816;7.964;2022-08-01T00:56:10;99999.47;;;26.56;39.97
29215;BME280;16252;49.816;7.964;2022-08-01T00:58:36;99995.06;;;26.48;40.23
29215;BME280;16252;49.816;7.964;2022-08-01T01:01:02;100009.19;;;26.52;40.07
29215;BME280;16252;49.816;7.964;2022-08-01T01:03:27;99972.03;;;26.24;40.27
29215;BME280;16252;49.816;7.964;2022-08-01T01:06:05;100010.69;;;26.54;40.20
29215;BME280;16252;49.816;7.964;2022-08-01T01:08:39;100009.41;;;26.50;40.03
29215;BME280;16252;49.816;7.964;2022-08-01T01:11:14;100008.41;;;26.38;39.90
29215;BME280;16252;49.816;7.964;2022-08-01T01:13:50;100014.31;;;26.42;40.08
29215;BME280;16252;49.816;7.964;2022-08-01T01:16:19;100000.69;;;26.28;40.72
29215;BME280;16252;49.816;7.964;2022-08-01T01:18:51;100021.31;;;26.37;40.53
29215;BME280;16252;49.816;7.964;2022-08-01T01:29:32;100012.31;;;26.24;40.21
29215;BME280;16252;49.816;7.964;2022-08-01T01:32:05;100014.25;;;26.23;40.67
29215;BME280;16252;49.816;7.964;2022-08-01T01:34:36;100001.63;;;26.09;41.06
29215;BME280;16252;49.816;7.964;2022-08-01T01:37:04;100002.72;;;26.01;41.11
29215;BME280;16252;49.816;7.964;2022-08-01T01:39:32;100016.81;;;26.11;41.02
29215;BME280;16252;49.816;7.964;2022-08-01T01:41:58;100006.69;;;26.05;41.21
29215;BME280;16252;49.816;7.964;2022-08-01T01:44:26;100011.78;;;26.02;41.42
29215;BME280;16252;49.816;7.964;2022-08-01T01:46:53;99943.88;;;25.52;41.60
29215;BME280;16252;49.816;7.964;2022-08-01T01:49:24;100021.69;;;26.03;41.41
29215;BME280;16252;49.816;7.964;2022-08-01T01:51:53;100010.59;;;25.91;41.53
29215;BME280;16252;49.816;7.964;2022-08-01T01:54:20;100024.09;;;25.86;41.74
29215;BME280;16252;49.816;7.964;2022-08-01T01:56:47;100004.31;;;25.70;41.76
29215;BME280;16252;49.816;7.964;2022-08-01T01:59:19;100018.16;;;25.82;42.04
29215;BME280;16252;49.816;7.964;2022-08-01T02:01:47;100003.69;;;25.68;41.86
29215;BME280;16252;49.816;7.964;2022-08-01T02:04:13;100017.16;;;25.70;41.95
29215;BME280;16252;49.816;7.964;2022-08-01T02:06:39;100019.03;;;25.69;42.17
29215;BME280;16252;49.816;7.964;2022-08-01T02:09:07;100020.31;;;25.67;42.27
29215;BME280;16252;49.816;7.964;2022-08-01T02:11:35;99984.56;;;25.42;42.21
29215;BME280;16252;49.816;7.964;2022-08-01T02:14:02;100014.06;;;25.53;42.26
29215;BME280;16252;49.816;7.964;2022-08-01T02:16:31;99995.75;;;25.40;42.49
29215;BME280;16252;49.816;7.964;2022-08-01T02:18:57;99995.75;;;25.40;42.42
29215;BME280;16252;49.816;7.964;2022-08-01T02:21:28;100022.22;;;25.60;42.42
29215;BME280;16252;49.816;7.964;2022-08-01T02:24:01;99992.19;;;25.40;42.46
29215;BME280;16252;49.816;7.964;2022-08-01T02:26:28;99920.63;;;24.90;42.85
29215;BME280;16252;49.816;7.964;2022-08-01T02:28:57;100023.75;;;25.49;42.80
29215;BME280;16252;49.816;7.964;2022-08-01T02:31:25;99987.13;;;25.30;42.81
29215;BME280;16252;49.816;7.964;2022-08-01T02:34:03;99987.13;;;25.30;42.41
29215;BME280;16252;49.816;7.964;2022-08-01T02:36:30;100015.56;;;25.36;42.70
29215;BME280;16252;49.816;7.964;2022-08-01T02:38:59;100018.72;;;25.33;42.59
29215;BME280;16252;49.816;7.964;2022-08-01T02:41:26;100015.78;;;25.27;42.61
29215;BME280;16252;49.816;7.964;2022-08-01T02:43:55;100015.78;;;25.21;42.98
29215;BME280;16252;49.816;7.964;2022-08-01T02:46:33;99960.63;;;24.91;42.62
29215;BME280;16252;49.816;7.964;2022-08-01T02:49:01;100011.97;;;25.08;43.14
29215;BME280;16252;49.816;7.964;2022-08-01T02:51:29;99998.50;;;25.00;43.53
29215;BME280;16252;49.816;7.964;2022-08-01T02:53:56;99985.47;;;24.89;43.58
29215;BME280;16252;49.816;7.964;2022-08-01T02:56:25;100014.09;;;25.00;43.81
29215;BME280;16252;49.816;7.964;2022-08-01T02:59:01;100013.88;;;24.95;43.50
29215;BME280;16252;49.816;7.964;2022-08-01T03:01:27;100006.31;;;24.90;43.63
29215;BME280;16252;49.816;7.964;2022-08-01T03:03:53;100015.34;;;24.91;43.85
29215;BME280;16252;49.816;7.964;2022-08-01T03:06:18;100012.19;;;24.94;43.71
29215;BME280;16252;49.816;7.964;2022-08-01T03:08:44;99985.88;;;24.73;43.69
29215;BME280;16252;49.816;7.964;2022-08-01T03:11:12;100003.97;;;24.80;43.69
29215;BME280;16252;49.816;7.964;2022-08-01T03:13:40;100005.25;;;24.78;44.00
29215;BME280;16252;49.816;7.964;2022-08-01T03:16:07;99993.84;;;24.61;43.94
29215;BME280;16252;49.816;7.964;2022-08-01T03:18:34;100004.41;;;24.64;44.04
29215;BME280;16252;49.816;7.964;2022-08-01T03:21:01;100001.88;;;24.62;44.24
29215;BME280;16252;49.816;7.964;2022-08-01T03:23:28;100017.44;;;24.69;44.36
29215;BME280;16252;49.816;7.964;2022-08-01T03:25:55;100003.97;;;24.60;44.18
29215;BME280;16252;49.816;7.964;2022-08-01T03:28:21;99998.69;;;24.52;44.40
29215;BME280;16252;49.816;7.964;2022-08-01T03:30:48;99992.59;;;24.50;44.53
29215;BME280;16252;49.816;7.964;2022-08-01T03:33:14;100018.28;;;24.62;44.72
29215;BME280;16252;49.816;7.964;2022-08-01T03:35:46;99994.91;;;24.53;44.31
29215;BME280;16252;49.816;7.964;2022-08-01T03:38:13;99943.47;;;24.15;44.77
29215;BME280;16252;49.816;7.964;2022-08-01T03:40:47;100015.31;;;24.57;44.53
29215;BME280;16252;49.816;7.964;2022-08-01T03:43:18;100029.84;;;24.58;45.03
29215;BME280;16252;49.816;7.964;2022-08-01T03:45:49;100025.84;;;24.54;44.89
29215;BME280;16252;49.816;7.964;2022-08-01T03:48:19;99984.72;;;24.27;45.12
29215;BME280;16252;49.816;7.964;2022-08-01T03:50:50;100006.81;;;24.32;45.06
29215;BME280;16252;49.816;7.964;2022-08-01T03:53:20;100018.81;;;24.38;45.47
29215;BME280;16252;49.816;7.964;2022-08-01T03:55:47;100022.41;;;24.32;45.44
29215;BME280;16252;49.816;7.964;2022-08-01T03:58:14;100022.38;;;24.25;45.37
29215;BME280;16252;49.816;7.964;2022-08-01T04:00:40;100013.75;;;24.21;45.35
29215;BME280;16252;49.816;7.964;2022-08-01T04:03:08;100021.13;;;24.28;45.47
29215;BME280;16252;49.816;7.964;2022-08-01T04:05:34;99999.22;;;24.14;45.50
29215;BME280;16252;49.816;7.964;2022-08-01T04:07:59;99985.28;;;24.02;45.33
29215;BME280;16252;49.816;7.964;2022-08-01T04:10:27;100020.25;;;24.20;45.75
29215;BME280;16252;49.816;7.964;2022-08-01T04:12:52;100013.72;;;24.15;45.54
29215;BME280;16252;49.816;7.964;2022-08-01T04:15:18;100020.88;;;24.16;45.89
29215;BME280;16252;49.816;7.964;2022-08-01T04:17:45;100018.31;;;24.08;45.90
29215;BME280;16252;49.816;7.964;2022-08-01T04:20:11;100027.56;;;24.07;46.03
29215;BME280;16252;49.816;7.964;2022-08-01T04:22:36;99959.66;;;23.55;45.83
29215;BME280;16252;49.816;7.964;2022-08-01T04:25:05;100024.16;;;23.91;46.01
29215;BME280;16252;49.816;7.964;2022-08-01T04:27:36;99985.47;;;23.53;46.34
29215;BME280;16252;49.816;7.964;2022-08-01T04:30:03;100042.63;;;23.83;46.11
29215;BME280;16252;49.816;7.964;2022-08-01T04:32:32;100042.56;;;23.76;46.52
29215;BME280;16252;49.816;7.964;2022-08-01T04:34:59;99986.84;;;23.35;46.41
29215;BME280;16252;49.816;7.964;2022-08-01T04:37:28;100049.28;;;23.73;46.47
29215;BME280;16252;49.816;7.964;2022-08-01T04:39:54;100048.03;;;23.76;46.97
29215;BME280;16252;49.816;7.964;2022-08-01T04:42:21;100048.88;;;23.76;46.83
29215;BME280;16252;49.816;7.964;2022-08-01T04:44:46;99998.91;;;23.48;46.80
29215;BME280;16252;49.816;7.964;2022-08-01T04:47:12;100049.94;;;23.82;46.54
29215;BME280;16252;49.816;7.964;2022-08-01T04:49:39;100050.81;;;23.83;46.48
29215;BME280;16252;49.816;7.964;2022-08-01T04:52:05;100072.50;;;23.91;46.99
29215;BME280;16252;49.816;7.964;2022-08-01T04:54:32;100072.72;;;23.96;47.11
29215;BME280;16252;49.816;7.964;2022-08-01T04:56:59;100072.75;;;24.02;47.05
29215;BME280;16252;49.816;7.964;2022-08-01T04:59:29;100073.19;;;24.13;46.92
29215;BME280;16252;49.816;7.964;2022-08-01T05:02:12;100077.22;;;24.17;46.64
29215;BME280;16252;49.816;7.964;2022-08-01T05:04:39;100017.19;;;23.89;46.81
29215;BME280;16252;49.816;7.964;2022-08-01T05:07:05;100067.81;;;24.33;47.04
29215;BME280;16252;49.816;7.964;2022-08-01T05:09:31;100075.63;;;24.36;47.02
29215;BME280;16252;49.816;7.964;2022-08-01T05:11:58;100071.22;;;24.41;46.48
29215;BME280;16252;49.816;7.964;2022-08-01T05:14:28;100044.72;;;24.42;46.59
29215;BME280;16252;49.816;7.964;2022-08-01T05:16:54;100077.19;;;24.65;46.52
29215;BME280;16252;49.816;7.964;2022-08-01T05:19:20;100057.84;;;24.60;46.59
29215;BME280;16252;49.816;7.964;2022-08-01T05:21:45;100083.09;;;24.75;46.56
29215;BME280;16252;49.816;7.964;2022-08-01T05:24:11;100092.59;;;24.86;46.53
29215;BME280;16252;49.816;7.964;2022-08-01T05:26:37;100082.28;;;24.88;46.43
29215;BME280;16252;49.816;7.964;2022-08-01T05:29:03;100080.19;;;24.90;46.23
29215;BME280;16252;49.816;7.964;2022-08-01T05:31:28;100059.53;;;24.81;46.23
29215;BME280;16252;49.816;7.964;2022-08-01T05:33:53;100085.88;;;25.08;46.19
29215;BME280;16252;49.816;7.964;2022-08-01T05:36:19;100089.91;;;25.13;45.96
29215;BME280;16252;49.816;7.964;2022-08-01T05:38:44;100087.81;;;25.21;46.17
29215;BME280;16252;49.816;7.964;2022-08-01T05:41:10;100094.13;;;25.28;45.96
29215;BME280;16252;49.816;7.964;2022-08-01T05:43:35;100086.34;;;25.32;45.83
29215;BME280;16252;49.816;7.964;2022-08-01T05:46:01;100068.84;;;25.26;45.56
29215;BME280;16252;49.816;7.964;2022-08-01T05:48:26;100089.91;;;25.46;45.43
29215;BME280;16252;49.816;7.964;2022-08-01T05:50:51;100066.75;;;25.35;45.37
29215;BME280;16252;49.816;7.964;2022-08-01T05:53:18;100091.19;;;25.50;45.63
29215;BME280;16252;49.816;7.964;2022-08-01T05:55:43;100085.03;;;25.55;45.34
29215;BME280;16252;49.816;7.964;2022-08-01T05:58:08;100086.94;;;25.61;45.29
29215;BME280;16252;49.816;7.964;2022-08-01T06:00:33;100082.09;;;25.63;45.22
29215;BME280;16252;49.816;7.964;2022-08-01T06:02:59;100101.25;;;25.76;45.23
29215;BME280;16252;49.816;7.964;2022-08-01T06:05:24;100082.25;;;25.74;45.23
29215;BME280;16252;49.816;7.964;2022-08-01T06:07:49;100067.09;;;25.72;45.29
29215;BME280;16252;49.816;7.964;2022-08-01T06:10:15;100099.53;;;25.95;45.11
29215;BME280;16252;49.816;7.964;2022-08-01T06:12:40;100092.56;;;25.99;45.01
29215;BME280;16252;49.816;7.964;2022-08-01T06:15:06;100101.56;;;26.13;44.87
29215;BME280;16252;49.816;7.964;2022-08-01T06:17:31;100108.53;;;26.15;44.75
29215;BME280;16252;49.816;7.964;2022-08-01T06:19:57;100115.47;;;26.25;44.52
29215;BME280;16252;49.816;7.964;2022-08-01T06:22:22;100117.38;;;26.24;44.56
29215;BME280;16252;49.816;7.964;2022-08-01T06:24:47;100121.97;;;26.30;44.31
29215;BME280;16252;49.816;7.964;2022-08-01T06:27:13;100119.88;;;26.32;44.50
29215;BME280;16252;49.816;7.964;2022-08-01T06:29:38;100116.06;;;26.33;44.37
29215;BME280;16252;49.816;7.964;2022-08-01T06:32:04;100120.50;;;26.34;44.30
29215;BME280;16252;49.816;7.964;2022-08-01T06:34:29;100121.75;;;26.38;44.28
29215;BME280;16252;49.816;7.964;2022-08-01T06:36:54;100124.25;;;26.40;44.21
29215;BME280;16252;49.816;7.964;2022-08-01T06:39:19;100116.47;;;26.37;44.10
29215;BME280;16252;49.816;7.964;2022-08-01T06:41:45;100115.38;;;26.45;44.42
29215;BME280;16252;49.816;7.964;2022-08-01T06:44:12;100141.94;;;26.57;44.24
29215;BME280;16252;49.816;7.964;2022-08-01T06:46:38;100129.69;;;26.60;44.21
29215;BME280;16252;49.816;7.964;2022-08-01T06:49:03;100128.00;;;26.59;44.24
29215;BME280;16252;49.816;7.964;2022-08-01T06:51:29;100137.66;;;26.68;44.06
29215;BME280;16252;49.816;7.964;2022-08-01T06:53:54;100116.97;;;26.66;44.20
29215;BME280;16252;49.816;7.964;2022-08-01T06:56:20;100132.34;;;26.73;44.07
29215;BME280;16252;49.816;7.964;2022-08-01T06:58:45;100124.56;;;26.70;44.16
29215;BME280;16252;49.816;7.964;2022-08-01T07:01:11;100125.75;;;26.81;44.02
29215;BME280;16252;49.816;7.964;2022-08-01T07:03:36;100107.00;;;26.78;44.08
29215;BME280;16252;49.816;7.964;2022-08-01T07:06:02;100122.09;;;26.94;44.03
29215;BME280;16252;49.816;7.964;2022-08-01T07:08:28;100125.00;;;26.99;44.13
29215;BME280;16252;49.816;7.964;2022-08-01T07:10:53;100104.16;;;26.91;44.10
29215;BME280;16252;49.816;7.964;2022-08-01T07:13:19;100099.25;;;27.00;43.95
29215;BME280;16252;49.816;7.964;2022-08-01T07:15:48;100099.81;;;27.09;43.69
29215;BME280;16252;49.816;7.964;2022-08-01T07:18:13;100103.56;;;27.14;43.46
29215;BME280;16252;49.816;7.964;2022-08-01T07:20:38;100104.84;;;27.18;43.54
29215;BME280;16252;49.816;7.964;2022-08-01T07:23:04;100037.34;;;26.79;43.42
29215;BME280;16252;49.816;7.964;2022-08-01T07:25:29;100111.91;;;27.33;43.43
29215;BME280;16252;49.816;7.964;2022-08-01T07:27:54;100115.44;;;27.40;43.72
29215;BME280;16252;49.816;7.964;2022-08-01T07:30:20;100096.22;;;27.40;43.49
29215;BME280;16252;49.816;7.964;2022-08-01T07:32:45;100106.41;;;27.58;43.20
29215;BME280;16252;49.816;7.964;2022-08-01T07:35:10;100095.84;;;27.55;43.23
29215;BME280;16252;49.816;7.964;2022-08-01T07:37:36;100112.84;;;27.70;43.14
29215;BME280;16252;49.816;7.964;2022-08-01T07:40:02;100093.81;;;27.69;43.04
29215;BME280;16252;49.816;7.964;2022-08-01T07:42:29;100107.00;;;27.85;43.07
29215;BME280;16252;49.816;7.964;2022-08-01T07:44:54;100104.38;;;27.90;42.74
29215;BME280;16252;49.816;7.964;2022-08-01T07:47:26;100093.84;;;28.05;42.66
29215;BME280;16252;49.816;7.964;2022-08-01T07:49:52;100105.47;;;28.26;42.70
29215;BME280;16252;49.816;7.964;2022-08-01T07:52:23;100103.75;;;28.43;42.34
29215;BME280;16252;49.816;7.964;2022-08-01T07:54:48;100101.44;;;28.59;42.03
29215;BME280;16252;49.816;7.964;2022-08-01T07:57:14;100099.38;;;28.72;42.00
29215;BME280;16252;49.816;7.964;2022-08-01T07:59:39;100087.66;;;28.89;41.76
29215;BME280;16252;49.816;7.964;2022-08-01T08:02:04;100103.47;;;29.12;41.40
29215;BME280;16252;49.816;7.964;2022-08-01T08:04:29;100105.50;;;29.28;41.11
29215;BME280;16252;49.816;7.964;2022-08-01T08:06:55;100109.72;;;29.54;41.56
29215;BME280;16252;49.816;7.964;2022-08-01T08:09:20;100094.53;;;29.75;41.68
29215;BME280;16252;49.816;7.964;2022-08-01T08:11:46;100113.75;;;30.22;41.46
29215;BME280;16252;49.816;7.964;2022-08-01T08:14:12;100121.13;;;30.57;40.64
29215;BME280;16252;49.816;7.964;2022-08-01T08:16:37;100125.19;;;30.95;39.88
29215;BME280;16252;49.816;7.964;2022-08-01T08:19:03;100054.91;;;30.74;39.01
29215;BME280;16252;49.816;7.964;2022-08-01T08:21:28;100116.09;;;31.28;38.76
29215;BME280;16252;49.816;7.964;2022-08-01T08:23:55;100119.34;;;31.25;38.12
29215;BME280;16252;49.816;7.964;2022-08-01T08:26:39;100130.31;;;31.20;38.12
29215;BME280;16252;49.816;7.964;2022-08-01T08:29:04;100126.28;;;31.11;37.87
29215;BME280;16252;49.816;7.964;2022-08-01T08:31:29;100115.69;;;30.91;37.87
29215;BME280;16252;49.816;7.964;2022-08-01T08:33:54;100120.53;;;30.84;38.19
29215;BME280;16252;49.816;7.964;2022-08-01T08:36:20;100119.34;;;30.80;37.88
29215;BME280;16252;49.816;7.964;2022-08-01T08:38:45;100126.53;;;30.81;38.21
29215;BME280;16252;49.816;7.964;2022-08-01T08:41:11;100104.31;;;30.87;38.26
29215;BME280;16252;49.816;7.964;2022-08-01T08:43:36;100104.84;;;31.18;38.31
29215;BME280;16252;49.816;7.964;2022-08-01T08:46:02;100115.63;;;31.48;38.12
29215;BME280;16252;49.816;7.964;2022-08-01T08:48:28;100112.84;;;31.65;37.48
29215;BME280;16252;49.816;7.964;2022-08-01T08:50:55;100110.69;;;31.89;37.52
29215;BME280;16252;49.816;7.964;2022-08-01T08:53:22;100069.75;;;31.91;37.25
29215;BME280;16252;49.816;7.964;2022-08-01T08:55:48;100105.34;;;32.44;36.84
29215;BME280;16252;49.816;7.964;2022-08-01T08:58:14;100098.56;;;32.84;36.87
29215;BME280;16252;49.816;7.964;2022-08-01T09:00:42;100106.63;;;33.50;36.57
29215;BME280;16252;49.816;7.964;2022-08-01T09:03:08;100104.03;;;34.18;35.75
29215;BME280;16252;49.816;7.964;2022-08-01T09:05:33;100098.72;;;34.79;35.24
29215;BME280;16252;49.816;7.964;2022-08-01T09:07:59;100098.47;;;35.42;34.37
29215;BME280;16252;49.816;7.964;2022-08-01T09:10:25;100104.25;;;35.87;33.32
29215;BME280;16252;49.816;7.964;2022-08-01T09:15:49;100098.34;;;36.19;32.20
29215;BME280;16252;49.816;7.964;2022-08-01T09:18:25;100106.91;;;36.33;32.13
29215;BME280;16252;49.816;7.964;2022-08-01T09:23:33;100101.38;;;36.22;31.50
29215;BME280;16252;49.816;7.964;2022-08-01T09:25:58;100117.53;;;36.20;31.38
29215;BME280;16252;49.816;7.964;2022-08-01T09:28:28;100100.78;;;36.31;31.82
29215;BME280;16252;49.816;7.964;2022-08-01T09:30:58;100101.16;;;36.69;31.79
29215;BME280;16252;49.816;7.964;2022-08-01T09:33:23;100109.53;;;37.13;31.17
29215;BME280;16252;49.816;7.964;2022-08-01T09:35:56;100110.66;;;37.41;30.60
29215;BME280;16252;49.816;7.964;2022-08-01T09:38:24;100089.09;;;37.52;30.36
29215;BME280;16252;49.816;7.964;2022-08-01T09:40:56;100104.09;;;37.85;30.07
29215;BME280;16252;49.816;7.964;2022-08-01T09:43:23;100078.75;;;38.06;29.75
29215;BME280;16252;49.816;7.964;2022-08-01T09:45:49;100088.63;;;38.41;29.25
29215;BME280;16252;49.816;7.964;2022-08-01T09:48:15;100115.13;;;39.06;28.98
29215;BME280;16252;49.816;7.964;2022-08-01T09:50:44;100117.56;;;39.45;31.63
29215;BME280;16252;49.816;7.964;2022-08-01T09:53:10;100100.31;;;39.98;28.39
29215;BME280;16252;49.816;7.964;2022-08-01T09:55:37;100101.84;;;40.60;27.68
29215;BME280;16252;49.816;7.964;2022-08-01T09:58:03;100091.16;;;40.98;27.00
29215;BME280;16252;49.816;7.964;2022-08-01T10:00:30;100112.94;;;41.69;25.95
29215;BME280;16252;49.816;7.964;2022-08-01T10:02:55;100107.06;;;42.19;25.23
29215;BME280;16252;49.816;7.964;2022-08-01T10:05:34;100118.41;;;42.71;25.78
29215;BME280;16252;49.816;7.964;2022-08-01T10:08:01;100110.16;;;43.18;24.73
29215;BME280;16252;49.816;7.964;2022-08-01T10:10:28;100072.53;;;43.32;23.69
29215;BME280;16252;49.816;7.964;2022-08-01T10:12:55;100105.94;;;43.98;23.50
29215;BME280;16252;49.816;7.964;2022-08-01T10:15:21;100108.72;;;44.36;23.00
29215;BME280;16252;49.816;7.964;2022-08-01T10:17:55;100091.66;;;44.62;23.52
29215;BME280;16252;49.816;7.964;2022-08-01T10:20:27;100106.13;;;45.03;22.39
29215;BME280;16252;49.816;7.964;2022-08-01T10:22:59;100087.41;;;44.98;22.06
29215;BME280;16252;49.816;7.964;2022-08-01T10:25:27;100102.84;;;44.80;21.61
29215;BME280;16252;49.816;7.964;2022-08-01T10:27:53;100098.84;;;44.30;21.36
29215;BME280;16252;49.816;7.964;2022-08-01T10:30:22;100085.72;;;43.66;21.37
29215;BME280;16252;49.816;7.964;2022-08-01T10:32:48;100084.97;;;43.31;21.73
29215;BME280;16252;49.816;7.964;2022-08-01T10:35:14;100074.38;;;43.19;21.87
29215;BME280;16252;49.816;7.964;2022-08-01T10:37:44;100092.91;;;43.28;21.66
29215;BME280;16252;49.816;7.964;2022-08-01T10:40:12;100092.09;;;43.28;21.84
29215;BME280;16252;49.816;7.964;2022-08-01T10:42:40;100095.56;;;43.34;21.66
29215;BME280;16252;49.816;7.964;2022-08-01T10:45:07;100095.06;;;43.40;21.45
29215;BME280;16252;49.816;7.964;2022-08-01T10:47:40;100075.50;;;43.35;21.87
29215;BME280;16252;49.816;7.964;2022-08-01T10:50:11;100097.19;;;43.17;21.48
29215;BME280;16252;49.816;7.964;2022-08-01T10:52:38;100059.81;;;42.73;21.26
29215;BME280;16252;49.816;7.964;2022-08-01T10:55:05;100075.88;;;42.47;21.56
29215;BME280;16252;49.816;7.964;2022-08-01T10:57:46;100068.31;;;42.07;22.18
29215;BME280;16252;49.816;7.964;2022-08-01T11:00:19;100056.13;;;41.72;22.20
29215;BME280;16252;49.816;7.964;2022-08-01T11:02:59;100063.25;;;41.47;22.48
29215;BME280;16252;49.816;7.964;2022-08-01T11:05:27;100063.25;;;41.15;22.47
29215;BME280;16252;49.816;7.964;2022-08-01T11:07:54;100057.72;;;40.88;22.17
29215;BME280;16252;49.816;7.964;2022-08-01T11:10:39;100063.09;;;40.76;22.99
29215;BME280;16252;49.816;7.964;2022-08-01T11:13:06;100052.88;;;40.43;22.45
29215;BME280;16252;49.816;7.964;2022-08-01T11:15:39;100051.25;;;40.15;22.56
29215;BME280;16252;49.816;7.964;2022-08-01T11:20:58;100057.78;;;39.69;23.06
29215;BME280;16252;49.816;7.964;2022-08-01T11:23:25;100041.13;;;39.31;23.18
29215;BME280;16252;49.816;7.964;2022-08-01T11:28:22;100047.56;;;38.79;23.76
29215;BME280;16252;49.816;7.964;2022-08-01T11:30:54;100047.50;;;38.47;24.01
29215;BME280;16252;49.816;7.964;2022-08-01T11:38:36;100024.72;;;37.67;24.45
29215;BME280;16252;49.816;7.964;2022-08-01T11:41:12;100029.66;;;37.51;24.67
29215;BME280;16252;49.816;7.964;2022-08-01T11:44:03;100032.47;;;37.46;24.91
29215;BME280;16252;49.816;7.964;2022-08-01T11:46:56;100043.22;;;37.34;24.84
29215;BME280;16252;49.816;7.964;2022-08-01T11:49:44;100038.56;;;37.24;25.14
29215;BME280;16252;49.816;7.964;2022-08-01T11:54:47;100027.06;;;36.97;25.19
29215;BME280;16252;49.816;7.964;2022-08-01T11:57:15;100021.06;;;36.84;25.33
29215;BME280;16252;49.816;7.964;2022-08-01T11:59:45;100022.25;;;36.73;25.32
29215;BME280;16252;49.816;7.964;2022-08-01T12:02:17;100025.34;;;36.66;25.45
29215;BME280;16252;49.816;7.964;2022-08-01T12:04:50;100022.91;;;36.60;25.77
29215;BME280;16252;49.816;7.964;2022-08-01T12:07:17;99975.22;;;36.22;25.66
29215;BME280;16252;49.816;7.964;2022-08-01T12:09:43;100007.38;;;36.43;25.99
29215;BME280;16252;49.816;7.964;2022-08-01T12:12:09;100018.22;;;36.50;25.76
29215;BME280;16252;49.816;7.964;2022-08-01T12:14:35;100010.97;;;36.49;25.53
29215;BME280;16252;49.816;7.964;2022-08-01T12:17:00;99994.03;;;36.40;25.77
29215;BME280;16252;49.816;7.964;2022-08-01T12:19:25;100003.75;;;36.43;25.51
29215;BME280;16252;49.816;7.964;2022-08-01T12:24:36;100016.31;;;36.40;25.29
29215;BME280;16252;49.816;7.964;2022-08-01T12:27:02;100008.34;;;36.29;25.67
29215;BME280;16252;49.816;7.964;2022-08-01T12:29:35;99990.59;;;36.14;25.56
29215;BME280;16252;49.816;7.964;2022-08-01T12:32:01;99999.50;;;36.06;25.52
29215;BME280;16252;49.816;7.964;2022-08-01T12:34:30;100001.75;;;36.04;25.41
29215;BME280;16252;49.816;7.964;2022-08-01T12:37:00;100005.94;;;36.01;25.56
29215;BME280;16252;49.816;7.964;2022-08-01T12:39:33;100008.44;;;35.98;25.67
29215;BME280;16252;49.816;7.964;2022-08-01T12:41:59;99993.50;;;35.84;25.71
29215;BME280;16252;49.816;7.964;2022-08-01T12:44:27;99990.19;;;35.76;26.00
29215;BME280;16252;49.816;7.964;2022-08-01T12:46:53;99972.69;;;35.66;25.96
29215;BME280;16252;49.816;7.964;2022-08-01T12:49:18;99995.47;;;35.73;26.11
29215;BME280;16252;49.816;7.964;2022-08-01T12:51:44;99976.88;;;35.63;26.19
29215;BME280;16252;49.816;7.964;2022-08-01T12:54:09;99971.84;;;35.55;26.17
29215;BME280;16252;49.816;7.964;2022-08-01T12:56:35;99988.84;;;35.64;26.40
29215;BME280;16252;49.816;7.964;2022-08-01T12:59:01;99991.31;;;35.55;26.40
29215;BME280;16252;49.816;7.964;2022-08-01T13:01:27;99993.59;;;35.53;26.54
29215;BME280;16252;49.816;7.964;2022-08-01T13:04:02;99982.19;;;35.39;26.55
29215;BME280;16252;49.816;7.964;2022-08-01T13:06:31;99976.97;;;35.17;26.85
29215;BME280;16252;49.816;7.964;2022-08-01T13:09:05;99986.13;;;35.28;26.75
29215;BME280;16252;49.816;7.964;2022-08-01T13:11:30;99996.16;;;35.24;26.97
29215;BME280;16252;49.816;7.964;2022-08-01T13:13:56;99986.69;;;35.14;27.09
29215;BME280;16252;49.816;7.964;2022-08-01T13:16:24;99988.94;;;35.17;26.80
29215;BME280;16252;49.816;7.964;2022-08-01T13:18:51;99963.91;;;35.02;27.11
29215;BME280;16252;49.816;7.964;2022-08-01T13:21:24;99960.59;;;34.95;26.84
29215;BME280;16252;49.816;7.964;2022-08-01T13:24:05;99988.38;;;35.21;26.77